M.v. Eagle — WCX5125 — position and weather

sailwx.info

Track history (hours):
 
Tides and Currents Weather Stations Pressure Air Temp Water Temp Dewpoint Dewpoint Depression Visibility Wind Speed Wind Dir Waves Ship Positions

M.v. Eagle

Owner: WOODS HOLE, MARTHA'S VINEYARD AND NANTUCKET STEAMSHIP AUTHORITY, WOODS HOLE, MA. More information available from US FCC via Universal Licensing System and Coast Guard Vessel Documentation Center.

Last reported at 2018-Feb-02 02:00 UTC. Time now 2018-Feb-20 13:57 UTC.
Position N 41°31' W 070°14'.
Warning: this ship's position is 18 days out of date.

Length 66 m; draft 3.2 m.

Type: Ship. MMSI: 367174060.

Date/timePositionNaut miles runAvg speedWind from/ knotsBaromVisibWave heightAir tempDewpointWater temp
2018-Feb-02 02:00N 41°31' W 070°14'612.9
2018-Feb-02 01:30N 41°37' W 070°17'3 5.0
2018-Feb-02 01:00N 41°39' W 070°17'0 0.5
2018-Feb-02 00:30N 41°39' W 070°16'4 8.7
2018-Feb-02 00:00N 41°34' W 070°16'5 1.0
2018-Feb-01 19:30N 41°39' W 070°17'0 0.0
2018-Feb-01 19:00N 41°39' W 070°17'4 8.7
2018-Feb-01 18:30N 41°35' W 070°17'3 1.0
2018-Feb-01 15:07N 41°32' W 070°15'213.0
2018-Feb-01 15:00N 41°33' W 070°16'6 3.8
2018-Feb-01 13:30N 41°39' W 070°16'5 9.5
2018-Feb-01 13:00N 41°34' W 070°16'  
2018-Jan-28 01:45N 41°32' W 070°15'313.1
2018-Jan-28 01:30N 41°35' W 070°16'4 8.8
2018-Jan-28 01:01N 41°39' W 070°17'0 0.0
2018-Jan-28 00:31N 41°39' W 070°17'5 9.2
2018-Jan-28 00:00N 41°34' W 070°16'6 1.8
2018-Jan-27 20:47N 41°29' W 070°13'413.4
2018-Jan-27 20:28N 41°33' W 070°15'510.8
2018-Jan-27 20:00N 41°37' W 070°17'2 3.1
2018-Jan-27 19:30N 41°39' W 070°17'1 1.1
2018-Jan-27 19:00N 41°39' W 070°16'4 8.9
2018-Jan-27 18:30N 41°34' W 070°16'3 1.0
2018-Jan-27 15:08N 41°31' W 070°14'213.1
2018-Jan-27 15:00N 41°32' W 070°15'510.5
2018-Jan-27 14:30N 41°38' W 070°16'1 2.7
2018-Jan-27 14:01N 41°39' W 070°17'7 0.6
2018-Jan-27 01:52N 41°32' W 070°15'512.9
2018-Jan-27 01:30N 41°36' W 070°17'3 5.9
2018-Jan-27 01:00N 41°39' W 070°17'0 0.9
2018-Jan-27 00:30N 41°39' W 070°16'5 9.2
2018-Jan-27 00:00N 41°34' W 070°16'3 0.9
2018-Jan-26 20:37N 41°31' W 070°15'213.8
2018-Jan-26 20:30N 41°33' W 070°15'510.3
2018-Jan-26 20:00N 41°38' W 070°16'1 2.7
2018-Jan-26 19:30N 41°39' W 070°17'1 1.4
2018-Jan-26 19:00N 41°38' W 070°16'5 9.2
2018-Jan-26 18:30N 41°34' W 070°16'2 0.7
2018-Jan-26 15:05N 41°32' W 070°15'113.6
2018-Jan-26 15:00N 41°32' W 070°15'510.6
2018-Jan-26 14:30N 41°38' W 070°16'1 2.8
2018-Jan-26 14:00N 41°39' W 070°17'1 1.6
2018-Jan-26 13:30N 41°38' W 070°16'5 9.6
2018-Jan-26 13:00N 41°34' W 070°16'6 0.3
2018-Jan-25 19:36N 41°39' W 070°17'0 0.0
2018-Jan-25 19:30N 41°39' W 070°17'0 0.6
2018-Jan-25 19:00N 41°39' W 070°16'5 9.3
2018-Jan-25 18:30N 41°34' W 070°16'  
Track history (hours):
 
Tides and Currents Weather Stations Pressure Air Temp Water Temp Dewpoint Dewpoint Depression Visibility Wind Speed Wind Dir Waves Ship Positions

M.v. Eagle

Owner: WOODS HOLE, MARTHA'S VINEYARD AND NANTUCKET STEAMSHIP AUTHORITY, WOODS HOLE, MA. More information available from US FCC via Universal Licensing System and Coast Guard Vessel Documentation Center.

Last reported at 2018-Feb-02 02:00 UTC. Time now 2018-Feb-20 13:57 UTC.
Position N 41°31' W 070°14'.
Warning: this ship's position is 18 days out of date.

Length 66 m; draft 3.2 m.

Type: Ship. MMSI: 367174060.

Date/timePositionNaut miles runAvg speedWind from/ knotsBaromVisibWave heightAir tempDewpointWater temp
2018-Feb-02 02:00N 41°31' W 070°14'612.9
2018-Feb-02 01:30N 41°37' W 070°17'3 5.0
2018-Feb-02 01:00N 41°39' W 070°17'0 0.5
2018-Feb-02 00:30N 41°39' W 070°16'4 8.7
2018-Feb-02 00:00N 41°34' W 070°16'5 1.0
2018-Feb-01 19:30N 41°39' W 070°17'0 0.0
2018-Feb-01 19:00N 41°39' W 070°17'4 8.7
2018-Feb-01 18:30N 41°35' W 070°17'3 1.0
2018-Feb-01 15:07N 41°32' W 070°15'213.0
2018-Feb-01 15:00N 41°33' W 070°16'6 3.8
2018-Feb-01 13:30N 41°39' W 070°16'5 9.5
2018-Feb-01 13:00N 41°34' W 070°16'  
2018-Jan-28 01:45N 41°32' W 070°15'313.1
2018-Jan-28 01:30N 41°35' W 070°16'4 8.8
2018-Jan-28 01:01N 41°39' W 070°17'0 0.0
2018-Jan-28 00:31N 41°39' W 070°17'5 9.2
2018-Jan-28 00:00N 41°34' W 070°16'6 1.8
2018-Jan-27 20:47N 41°29' W 070°13'413.4
2018-Jan-27 20:28N 41°33' W 070°15'510.8
2018-Jan-27 20:00N 41°37' W 070°17'2 3.1
2018-Jan-27 19:30N 41°39' W 070°17'1 1.1
2018-Jan-27 19:00N 41°39' W 070°16'4 8.9
2018-Jan-27 18:30N 41°34' W 070°16'3 1.0
2018-Jan-27 15:08N 41°31' W 070°14'213.1
2018-Jan-27 15:00N 41°32' W 070°15'510.5
2018-Jan-27 14:30N 41°38' W 070°16'1 2.7
2018-Jan-27 14:01N 41°39' W 070°17'7 0.6
2018-Jan-27 01:52N 41°32' W 070°15'512.9
2018-Jan-27 01:30N 41°36' W 070°17'3 5.9
2018-Jan-27 01:00N 41°39' W 070°17'0 0.9
2018-Jan-27 00:30N 41°39' W 070°16'5 9.2
2018-Jan-27 00:00N 41°34' W 070°16'3 0.9
2018-Jan-26 20:37N 41°31' W 070°15'213.8
2018-Jan-26 20:30N 41°33' W 070°15'510.3
2018-Jan-26 20:00N 41°38' W 070°16'1 2.7
2018-Jan-26 19:30N 41°39' W 070°17'1 1.4
2018-Jan-26 19:00N 41°38' W 070°16'5 9.2
2018-Jan-26 18:30N 41°34' W 070°16'2 0.7
2018-Jan-26 15:05N 41°32' W 070°15'113.6
2018-Jan-26 15:00N 41°32' W 070°15'510.6
2018-Jan-26 14:30N 41°38' W 070°16'1 2.8
2018-Jan-26 14:00N 41°39' W 070°17'1 1.6
2018-Jan-26 13:30N 41°38' W 070°16'5 9.6
2018-Jan-26 13:00N 41°34' W 070°16'6 0.3
2018-Jan-25 19:36N 41°39' W 070°17'0 0.0
2018-Jan-25 19:30N 41°39' W 070°17'0 0.6
2018-Jan-25 19:00N 41°39' W 070°16'5 9.3
2018-Jan-25 18:30N 41°34' W 070°16'  

Dump ship's entire track history